createdAt,value
2023-01-20T00:01:43.337Z,6.60
2023-01-20T00:04:10.100Z,6.60
2023-01-20T00:06:36.897Z,6.60
2023-01-20T00:09:05.420Z,6.60
2023-01-20T00:11:33.432Z,6.60
2023-01-20T00:14:02.361Z,6.60
2023-01-20T00:16:31.968Z,6.60
2023-01-20T00:18:59.235Z,6.60
2023-01-20T00:21:26.009Z,6.60
2023-01-20T00:23:52.776Z,6.50
2023-01-20T00:26:23.169Z,6.50
2023-01-20T00:28:52.996Z,6.50
2023-01-20T00:31:23.221Z,6.50
2023-01-20T00:33:52.293Z,6.50
2023-01-20T00:36:21.218Z,6.50
2023-01-20T00:38:48.926Z,6.40
2023-01-20T00:41:16.673Z,6.50
2023-01-20T00:43:44.403Z,6.50
2023-01-20T00:46:12.297Z,6.40
2023-01-20T00:48:39.562Z,6.40
2023-01-20T00:51:08.201Z,6.40
2023-01-20T00:53:35.748Z,6.40
2023-01-20T00:56:02.969Z,6.30
2023-01-20T00:58:29.747Z,6.30
2023-01-20T01:00:58.631Z,6.30
2023-01-20T01:03:28.255Z,6.30
2023-01-20T01:06:05.728Z,6.30
2023-01-20T01:08:34.943Z,6.30
2023-01-20T01:11:01.938Z,6.20
2023-01-20T01:13:29.248Z,6.20
2023-01-20T01:15:55.976Z,6.20
2023-01-20T01:18:22.988Z,6.10
2023-01-20T01:20:49.869Z,6.10
2023-01-20T01:23:16.649Z,6.00
2023-01-20T01:25:43.410Z,6.00
2023-01-20T01:28:10.199Z,6.00
2023-01-20T01:30:37.150Z,6.00
2023-01-20T01:33:04.152Z,6.00
2023-01-20T01:35:30.941Z,6.00
2023-01-20T01:37:57.702Z,6.00
2023-01-20T01:40:24.464Z,6.00
2023-01-20T01:42:51.238Z,5.90
2023-01-20T01:45:23.790Z,5.90
2023-01-20T01:48:09.777Z,6.60
2023-01-20T01:50:56.236Z,5.90
2023-01-20T01:53:23.551Z,5.80
2023-01-20T01:55:56.539Z,5.70
2023-01-20T01:58:32.280Z,5.70
2023-01-20T02:00:59.437Z,5.80
2023-01-20T02:03:40.432Z,5.70
2023-01-20T02:06:08.042Z,5.70
2023-01-20T02:08:35.719Z,5.70
2023-01-20T02:11:02.454Z,5.70
2023-01-20T02:13:29.447Z,5.70
2023-01-20T02:16:25.345Z,5.80
2023-01-20T02:19:30.799Z,5.70
2023-01-20T02:22:14.439Z,5.70
2023-01-20T02:25:17.384Z,5.70
2023-01-20T02:28:21.057Z,5.70
2023-01-20T02:31:29.342Z,5.70
2023-01-20T02:34:35.053Z,5.70
2023-01-20T02:37:24.468Z,5.70
2023-01-20T02:40:10.069Z,5.70
2023-01-20T02:42:57.121Z,5.70
2023-01-20T02:45:42.960Z,5.70
2023-01-20T02:48:36.144Z,5.70
2023-01-20T02:51:12.601Z,5.70
2023-01-20T02:53:48.838Z,5.80
2023-01-20T02:56:17.727Z,5.80
2023-01-20T02:59:08.273Z,5.80
2023-01-20T03:01:47.557Z,5.90
2023-01-20T03:04:24.246Z,5.90
2023-01-20T03:06:56.823Z,5.90
2023-01-20T03:09:31.264Z,5.90
2023-01-20T03:12:07.948Z,5.90
2023-01-20T03:14:34.917Z,5.90
2023-01-20T03:17:02.761Z,6.00
2023-01-20T03:19:29.959Z,6.00
2023-01-20T03:21:57.651Z,6.00
2023-01-20T03:24:28.895Z,6.00
2023-01-20T03:26:56.191Z,6.00
2023-01-20T03:29:23.011Z,6.00
2023-01-20T03:31:56.805Z,5.90
2023-01-20T03:34:28.059Z,5.90
2023-01-20T03:36:56.479Z,6.00
2023-01-20T03:39:25.047Z,5.90
2023-01-20T03:42:15.747Z,6.00
2023-01-20T03:45:05.045Z,6.00
2023-01-20T03:48:07.461Z,6.00
2023-01-20T03:51:28.436Z,5.90
2023-01-20T03:54:11.112Z,5.90
2023-01-20T03:57:04.096Z,6.00
2023-01-20T03:59:36.908Z,5.90
2023-01-20T04:02:07.847Z,5.90
2023-01-20T04:04:39.610Z,5.90
2023-01-20T04:07:13.708Z,5.90
2023-01-20T04:09:45.948Z,5.90
2023-01-20T04:12:13.423Z,5.90
2023-01-20T04:14:40.343Z,5.90
2023-01-20T04:17:07.916Z,5.90
2023-01-20T04:19:34.854Z,5.90
2023-01-20T04:22:28.196Z,5.90
2023-01-20T04:25:06.711Z,5.90
2023-01-20T04:27:33.512Z,5.80
2023-01-20T04:30:00.241Z,5.80
2023-01-20T04:32:27.028Z,5.80
2023-01-20T04:34:53.977Z,5.80
2023-01-20T04:37:20.685Z,5.80
2023-01-20T04:39:47.396Z,5.80
2023-01-20T04:42:14.148Z,5.70
2023-01-20T04:44:40.918Z,5.70
2023-01-20T04:47:07.775Z,5.70
2023-01-20T04:49:35.506Z,5.70
2023-01-20T04:52:02.356Z,5.70
2023-01-20T04:54:29.089Z,5.70
2023-01-20T04:56:55.832Z,5.70
2023-01-20T04:59:22.705Z,5.70
2023-01-20T05:01:49.599Z,5.70
2023-01-20T05:04:16.393Z,5.70
2023-01-20T05:06:44.868Z,5.70
2023-01-20T05:09:16.682Z,5.60
2023-01-20T05:11:44.404Z,5.70
2023-01-20T05:14:12.514Z,5.60
2023-01-20T05:16:39.273Z,5.60
2023-01-20T05:19:06.057Z,5.60
2023-01-20T05:21:33.783Z,5.60
2023-01-20T05:24:00.673Z,5.60
2023-01-20T05:26:27.511Z,5.60
2023-01-20T05:28:54.463Z,5.50
2023-01-20T05:31:21.456Z,5.50
2023-01-20T05:33:48.233Z,5.50
2023-01-20T05:36:14.952Z,5.50
2023-01-20T05:38:41.822Z,5.60
2023-01-20T05:41:09.898Z,5.50
2023-01-20T05:43:37.243Z,5.50
2023-01-20T05:46:06.523Z,5.50
2023-01-20T05:48:33.518Z,5.50
2023-01-20T05:51:00.336Z,5.50
2023-01-20T05:53:27.123Z,5.50
2023-01-20T05:56:02.230Z,5.50
2023-01-20T05:58:30.127Z,5.60
2023-01-20T06:01:09.487Z,5.50
2023-01-20T06:03:37.143Z,5.50
2023-01-20T06:06:07.950Z,5.50
2023-01-20T06:08:35.856Z,5.60
2023-01-20T06:11:02.793Z,5.60
2023-01-20T06:13:29.680Z,5.60
2023-01-20T06:15:56.804Z,5.60
2023-01-20T06:18:24.877Z,5.50
2023-01-20T06:20:51.776Z,5.60
2023-01-20T06:23:18.673Z,5.70
2023-01-20T06:25:45.503Z,5.70
2023-01-20T06:28:12.352Z,5.60
2023-01-20T06:30:39.181Z,5.60
2023-01-20T06:33:10.554Z,5.60
2023-01-20T06:35:37.892Z,5.70
2023-01-20T06:38:04.746Z,5.70
2023-01-20T06:40:31.829Z,5.60
2023-01-20T06:42:59.366Z,5.60
2023-01-20T06:45:26.172Z,5.50
2023-01-20T06:47:52.978Z,5.60
2023-01-20T06:50:19.847Z,5.60
2023-01-20T06:52:46.589Z,5.60
2023-01-20T06:55:13.555Z,5.60
2023-01-20T06:57:40.484Z,5.70
2023-01-20T07:00:09.680Z,5.70
2023-01-20T07:02:36.491Z,5.70
2023-01-20T07:05:04.658Z,5.70
2023-01-20T07:07:31.380Z,5.70
2023-01-20T07:09:58.140Z,5.60
2023-01-20T07:12:24.881Z,5.60
2023-01-20T07:14:51.628Z,5.70
2023-01-20T07:17:18.399Z,5.60
2023-01-20T07:19:45.382Z,5.60
2023-01-20T07:22:12.117Z,5.60
2023-01-20T07:24:38.971Z,5.60
2023-01-20T07:27:05.761Z,5.70
2023-01-20T07:29:32.518Z,5.60
2023-01-20T07:31:59.383Z,5.60
2023-01-20T07:34:26.207Z,5.70
2023-01-20T07:36:55.814Z,5.60
2023-01-20T07:39:22.565Z,5.60
2023-01-20T07:41:49.707Z,5.70
2023-01-20T07:44:16.782Z,5.60
2023-01-20T07:46:43.599Z,5.70
2023-01-20T07:49:12.395Z,5.60
2023-01-20T07:51:39.854Z,5.70
2023-01-20T07:54:06.757Z,5.70
2023-01-20T07:56:33.638Z,5.60
2023-01-20T07:59:00.857Z,5.70
2023-01-20T08:01:30.884Z,5.60
2023-01-20T08:04:02.444Z,5.70
2023-01-20T08:06:30.341Z,5.60
2023-01-20T08:09:01.961Z,5.60
2023-01-20T08:11:29.465Z,5.60
2023-01-20T08:13:56.437Z,5.60
2023-01-20T08:16:23.584Z,5.60
2023-01-20T08:18:53.855Z,5.60
2023-01-20T08:21:28.892Z,5.60
2023-01-20T08:23:57.651Z,5.60
2023-01-20T08:26:25.450Z,5.60
2023-01-20T08:28:52.272Z,5.60
2023-01-20T08:31:22.342Z,5.70
2023-01-20T08:33:54.502Z,5.70
2023-01-20T08:36:29.765Z,5.70
2023-01-20T08:38:59.869Z,5.70
2023-01-20T08:41:34.574Z,5.70
2023-01-20T08:44:04.575Z,5.70
2023-01-20T08:46:32.780Z,5.70
2023-01-20T08:48:59.606Z,5.70
2023-01-20T08:51:31.020Z,5.70
2023-01-20T08:53:58.319Z,5.70
2023-01-20T08:56:25.147Z,5.70
2023-01-20T08:58:52.245Z,5.70
2023-01-20T09:01:26.512Z,5.70
2023-01-20T09:04:05.512Z,5.70
2023-01-20T09:06:46.359Z,5.70
2023-01-20T09:09:16.789Z,5.70
2023-01-20T09:11:50.949Z,5.40
2023-01-20T09:14:24.692Z,5.70
2023-01-20T09:16:51.729Z,5.70
2023-01-20T09:19:18.746Z,5.70
2023-01-20T09:21:45.508Z,5.70
2023-01-20T09:24:12.484Z,5.70
2023-01-20T09:26:41.548Z,5.70
2023-01-20T09:29:12.843Z,5.70
2023-01-20T09:31:44.921Z,5.70
2023-01-20T09:34:21.397Z,5.80
2023-01-20T09:37:19.974Z,5.70
2023-01-20T09:40:06.196Z,5.80
2023-01-20T09:43:25.368Z,5.70
2023-01-20T09:46:21.891Z,5.70
2023-01-20T09:49:26.363Z,5.80
2023-01-20T09:52:45.953Z,5.80
2023-01-20T09:55:28.760Z,5.80
2023-01-20T09:58:25.663Z,5.80
2023-01-20T10:01:13.874Z,5.80
2023-01-20T10:03:58.689Z,5.90
2023-01-20T10:06:51.591Z,5.90
2023-01-20T10:09:52.787Z,5.90
2023-01-20T10:12:33.838Z,5.90
2023-01-20T10:15:12.604Z,5.90
2023-01-20T10:18:02.266Z,5.90
2023-01-20T10:21:00.857Z,5.80
2023-01-20T10:23:46.456Z,6.00
2023-01-20T10:26:40.935Z,6.00
2023-01-20T10:29:17.953Z,6.00
2023-01-20T10:32:00.209Z,6.00
2023-01-20T10:34:56.314Z,6.00
2023-01-20T10:37:24.553Z,6.00
2023-01-20T10:40:14.030Z,6.00
2023-01-20T10:42:41.400Z,6.00
2023-01-20T10:45:23.179Z,6.00
2023-01-20T10:48:25.916Z,6.00
2023-01-20T10:51:37.820Z,6.10
2023-01-20T10:54:41.411Z,6.10
2023-01-20T10:57:14.022Z,6.10
2023-01-20T10:59:51.548Z,6.10
2023-01-20T11:02:34.982Z,6.10
2023-01-20T11:05:18.890Z,6.10
2023-01-20T11:07:47.515Z,6.10
2023-01-20T11:10:25.025Z,6.20
2023-01-20T11:12:57.470Z,6.20
2023-01-20T11:15:36.713Z,6.30
2023-01-20T11:18:15.765Z,6.30
2023-01-20T11:20:58.102Z,6.40
2023-01-20T11:23:52.229Z,6.40
2023-01-20T11:26:31.645Z,6.40
2023-01-20T11:29:28.626Z,6.40
2023-01-20T11:31:56.752Z,6.40
2023-01-20T11:34:26.535Z,6.40
2023-01-20T11:37:19.539Z,6.40
2023-01-20T11:39:49.314Z,6.30
2023-01-20T11:42:27.485Z,6.30
2023-01-20T11:45:19.831Z,6.30
2023-01-20T11:48:04.887Z,6.30
2023-01-20T11:50:46.380Z,6.30
2023-01-20T11:53:34.773Z,6.30
2023-01-20T11:56:15.158Z,6.30
2023-01-20T11:59:01.841Z,6.30
2023-01-20T12:01:49.956Z,6.30
2023-01-20T12:04:54.456Z,6.20
2023-01-20T12:07:29.314Z,6.30
2023-01-20T12:10:17.092Z,7.10
2023-01-20T12:13:24.997Z,6.30
2023-01-20T12:15:59.076Z,6.30
2023-01-20T12:18:45.440Z,6.30
2023-01-20T12:21:26.358Z,6.30
2023-01-20T12:24:09.659Z,5.30
2023-01-20T12:26:36.694Z,6.20
2023-01-20T12:29:28.756Z,6.20
2023-01-20T12:31:55.633Z,6.30
2023-01-20T12:34:29.801Z,6.30
2023-01-20T12:37:24.761Z,6.20
2023-01-20T12:40:13.439Z,6.30
2023-01-20T12:43:12.868Z,6.40
2023-01-20T12:46:03.300Z,6.40
2023-01-20T12:48:54.327Z,6.40
2023-01-20T12:51:54.314Z,6.40
2023-01-20T12:55:17.453Z,6.60
2023-01-20T12:58:17.253Z,6.40
2023-01-20T13:01:29.083Z,6.40
2023-01-20T13:04:48.795Z,6.40
2023-01-20T13:07:33.021Z,6.40
2023-01-20T13:10:47.059Z,6.50
2023-01-20T13:14:02.019Z,6.40
2023-01-20T13:16:42.601Z,6.40
2023-01-20T13:19:37.162Z,6.40
2023-01-20T13:22:19.641Z,6.40
2023-01-20T13:24:50.750Z,6.40
2023-01-20T13:27:29.075Z,6.40
2023-01-20T13:29:58.949Z,6.50
2023-01-20T13:32:48.152Z,6.50
2023-01-20T13:35:17.933Z,6.50
2023-01-20T13:37:57.588Z,6.50
2023-01-20T13:40:36.544Z,6.60
2023-01-20T13:43:26.351Z,6.60
2023-01-20T13:46:06.597Z,6.70
2023-01-20T13:48:43.849Z,6.70
2023-01-20T13:51:42.405Z,6.70
2023-01-20T13:54:25.145Z,6.80
2023-01-20T13:56:52.387Z,6.80
2023-01-20T13:59:19.178Z,6.80
2023-01-20T14:01:45.974Z,6.90
2023-01-20T14:04:19.610Z,6.90
2023-01-20T14:06:49.637Z,6.90
2023-01-20T14:09:34.678Z,6.80
2023-01-20T14:12:01.449Z,6.80
2023-01-20T14:14:28.176Z,6.80
2023-01-20T14:16:56.467Z,6.80
2023-01-20T14:19:33.917Z,6.80
2023-01-20T14:22:16.443Z,6.80
2023-01-20T14:24:49.265Z,6.70
2023-01-20T14:27:35.492Z,6.70
2023-01-20T14:30:26.045Z,6.70
2023-01-20T14:32:53.808Z,6.70
2023-01-20T14:35:34.353Z,6.70
2023-01-20T14:38:02.139Z,6.50
2023-01-20T14:40:32.999Z,6.70
2023-01-20T14:43:16.557Z,6.70
2023-01-20T14:45:47.204Z,6.70
2023-01-20T14:48:28.238Z,6.70
2023-01-20T14:51:02.784Z,6.70
2023-01-20T14:53:29.628Z,6.70
2023-01-20T14:56:03.091Z,6.70
2023-01-20T14:58:31.054Z,6.70
2023-01-20T15:01:06.700Z,6.60
2023-01-20T15:03:33.630Z,6.70
2023-01-20T15:06:17.564Z,6.60
2023-01-20T15:09:04.325Z,6.70
2023-01-20T15:11:32.979Z,6.60
2023-01-20T15:14:02.414Z,6.70
2023-01-20T15:16:47.273Z,6.70
2023-01-20T15:19:16.929Z,6.60
2023-01-20T15:21:58.809Z,6.60
2023-01-20T15:24:32.849Z,6.70
2023-01-20T15:27:01.260Z,6.60
2023-01-20T15:29:34.580Z,6.70
2023-01-20T15:32:12.870Z,6.60
2023-01-20T15:34:39.661Z,6.60
2023-01-20T15:37:19.952Z,6.60
2023-01-20T15:39:47.557Z,6.50
2023-01-20T15:42:15.327Z,6.50
2023-01-20T15:44:42.117Z,6.50
2023-01-20T15:47:29.134Z,6.50
2023-01-20T15:49:55.956Z,6.40
2023-01-20T15:52:22.735Z,6.40
2023-01-20T15:54:49.453Z,6.40
2023-01-20T15:57:18.025Z,6.30
2023-01-20T15:59:46.077Z,6.30
2023-01-20T16:02:23.007Z,6.40
2023-01-20T16:04:50.481Z,6.30
2023-01-20T16:07:19.677Z,6.20
2023-01-20T16:09:46.922Z,6.20
2023-01-20T16:12:16.223Z,6.20
2023-01-20T16:14:43.338Z,6.10
2023-01-20T16:17:21.517Z,6.10
2023-01-20T16:19:50.044Z,6.10
2023-01-20T16:22:17.263Z,6.10
2023-01-20T16:24:44.221Z,6.10
2023-01-20T16:27:21.607Z,6.10
2023-01-20T16:29:49.198Z,6.10
2023-01-20T16:32:18.671Z,6.10
2023-01-20T16:34:46.686Z,6.10
2023-01-20T16:37:14.696Z,6.10
2023-01-20T16:39:41.567Z,6.20
2023-01-20T16:42:12.422Z,6.10
2023-01-20T16:44:39.197Z,6.10
2023-01-20T16:47:08.250Z,6.10
2023-01-20T16:49:35.088Z,6.10
2023-01-20T16:52:01.844Z,6.10
2023-01-20T16:54:28.551Z,6.10
2023-01-20T16:56:55.322Z,6.10
2023-01-20T16:59:22.581Z,6.10
2023-01-20T17:01:49.455Z,6.00
2023-01-20T17:04:16.679Z,6.00
2023-01-20T17:06:43.502Z,6.00
2023-01-20T17:09:11.283Z,6.00
2023-01-20T17:11:40.401Z,5.90
2023-01-20T17:14:10.479Z,5.90
2023-01-20T17:16:38.730Z,5.90
2023-01-20T17:19:06.173Z,5.90
2023-01-20T17:21:38.403Z,5.80
2023-01-20T17:24:06.066Z,5.80
2023-01-20T17:26:34.461Z,5.80
2023-01-20T17:29:05.249Z,5.80
2023-01-20T17:31:35.566Z,5.70
2023-01-20T17:34:06.817Z,5.70
2023-01-20T17:36:38.645Z,5.70
2023-01-20T17:39:07.109Z,5.70
2023-01-20T17:41:34.661Z,5.70
2023-01-20T17:44:01.385Z,5.70
2023-01-20T17:46:30.195Z,5.70
2023-01-20T17:49:01.709Z,5.60
2023-01-20T17:51:30.203Z,5.60
2023-01-20T17:54:03.528Z,5.60
2023-01-20T17:56:30.771Z,5.60
2023-01-20T17:58:57.538Z,5.70
2023-01-20T18:01:28.774Z,5.50
2023-01-20T18:03:59.307Z,5.40
2023-01-20T18:06:28.119Z,5.40
2023-01-20T18:08:58.715Z,5.40
2023-01-20T18:11:28.903Z,5.30
2023-01-20T18:13:58.263Z,5.30
2023-01-20T18:16:30.110Z,5.20
2023-01-20T18:18:58.967Z,5.20
2023-01-20T18:21:29.892Z,5.10
2023-01-20T18:23:58.120Z,5.10
2023-01-20T18:26:29.382Z,5.10
2023-01-20T18:28:59.867Z,5.10
2023-01-20T18:31:28.961Z,5.10
2023-01-20T18:33:59.217Z,5.10
2023-01-20T18:36:30.442Z,5.00
2023-01-20T18:39:08.105Z,5.00
2023-01-20T18:41:37.632Z,5.00
2023-01-20T18:44:05.518Z,5.00
2023-01-20T18:46:32.921Z,5.00
2023-01-20T18:49:00.116Z,5.00
2023-01-20T18:51:30.020Z,5.00
2023-01-20T18:54:07.344Z,4.90
2023-01-20T18:56:35.293Z,4.90
2023-01-20T18:59:04.158Z,5.00
2023-01-20T19:01:35.715Z,4.90
2023-01-20T19:04:04.466Z,4.90
2023-01-20T19:06:36.030Z,4.90
2023-01-20T19:09:04.886Z,4.80
2023-01-20T19:11:36.284Z,4.90
2023-01-20T19:14:03.683Z,4.90
2023-01-20T19:16:40.233Z,4.90
2023-01-20T19:19:07.787Z,4.90
2023-01-20T19:21:36.165Z,4.80
2023-01-20T19:24:06.113Z,4.80
2023-01-20T19:26:36.654Z,4.80
2023-01-20T19:29:11.793Z,4.80
2023-01-20T19:31:41.405Z,4.80
2023-01-20T19:34:09.767Z,4.80
2023-01-20T19:36:37.378Z,4.70
2023-01-20T19:39:05.467Z,4.70
2023-01-20T19:41:34.262Z,4.70
2023-01-20T19:44:03.253Z,4.70
2023-01-20T19:46:33.864Z,4.70
2023-01-20T19:49:02.207Z,4.70
2023-01-20T19:51:31.141Z,4.70
2023-01-20T19:54:00.879Z,4.70
2023-01-20T19:56:31.306Z,4.80
2023-01-20T19:59:00.706Z,4.70
2023-01-20T20:01:31.987Z,4.80
2023-01-20T20:04:03.495Z,4.70
2023-01-20T20:06:40.536Z,4.60
2023-01-20T20:09:12.358Z,4.60
2023-01-20T20:11:39.932Z,4.60
2023-01-20T20:14:10.950Z,4.50
2023-01-20T20:16:38.601Z,4.50
2023-01-20T20:19:07.392Z,4.40
2023-01-20T20:21:35.008Z,4.40
2023-01-20T20:24:05.175Z,4.40
2023-01-20T20:26:36.605Z,4.30
2023-01-20T20:29:07.040Z,4.40
2023-01-20T20:31:36.811Z,4.30
2023-01-20T20:34:06.824Z,5.40
2023-01-20T20:36:33.906Z,4.30
2023-01-20T20:39:03.328Z,4.20
2023-01-20T20:41:31.683Z,4.30
2023-01-20T20:44:01.163Z,4.30
2023-01-20T20:46:29.948Z,4.30
2023-01-20T20:49:02.147Z,4.30
2023-01-20T20:51:32.175Z,4.20
2023-01-20T20:54:01.858Z,4.20
2023-01-20T20:56:33.673Z,4.10
2023-01-20T20:59:03.208Z,4.20
2023-01-20T21:01:33.541Z,4.20
2023-01-20T21:04:01.475Z,4.20
2023-01-20T21:06:29.462Z,4.20
2023-01-20T21:08:56.452Z,4.10
2023-01-20T21:11:24.943Z,4.10
2023-01-20T21:13:52.875Z,4.50
2023-01-20T21:16:23.000Z,4.10
2023-01-20T21:18:52.243Z,4.00
2023-01-20T21:21:20.141Z,4.00
2023-01-20T21:23:55.776Z,4.00
2023-01-20T21:26:26.222Z,4.00
2023-01-20T21:28:54.069Z,4.00
2023-01-20T21:31:24.579Z,4.90
2023-01-20T21:33:54.509Z,3.90
2023-01-20T21:36:22.269Z,3.90
2023-01-20T21:38:50.234Z,4.50
2023-01-20T21:41:17.975Z,3.80
2023-01-20T21:44:06.014Z,3.90
2023-01-20T21:46:38.959Z,3.80
2023-01-20T21:49:28.142Z,3.80
2023-01-20T21:52:14.574Z,3.80
2023-01-20T21:54:41.950Z,3.70
2023-01-20T21:57:09.215Z,3.70
2023-01-20T21:59:36.415Z,3.70
2023-01-20T22:02:03.311Z,3.70
2023-01-20T22:04:30.199Z,3.70
2023-01-20T22:06:56.954Z,3.70
2023-01-20T22:09:23.880Z,3.70
2023-01-20T22:11:50.722Z,3.60
2023-01-20T22:14:17.751Z,3.70
2023-01-20T22:16:44.748Z,3.70
2023-01-20T22:19:14.930Z,3.70
2023-01-20T22:21:42.647Z,3.60
2023-01-20T22:24:11.437Z,3.60
2023-01-20T22:26:38.417Z,3.60
2023-01-20T22:29:05.335Z,3.60
2023-01-20T22:31:34.160Z,3.50
2023-01-20T22:34:06.148Z,3.50
2023-01-20T22:36:34.121Z,3.50
2023-01-20T22:39:01.042Z,3.50
2023-01-20T22:41:27.984Z,3.50
2023-01-20T22:43:55.767Z,3.50
2023-01-20T22:46:25.272Z,3.40
2023-01-20T22:48:52.245Z,3.50
2023-01-20T22:51:22.882Z,3.50
2023-01-20T22:53:54.646Z,3.50
2023-01-20T22:56:30.503Z,3.50
2023-01-20T22:58:59.553Z,3.50
2023-01-20T23:01:33.170Z,3.50
2023-01-20T23:04:05.628Z,3.50
2023-01-20T23:06:35.412Z,3.50
2023-01-20T23:09:07.248Z,3.50
2023-01-20T23:11:36.541Z,3.50
2023-01-20T23:14:03.716Z,3.50
2023-01-20T23:16:30.459Z,3.50
2023-01-20T23:18:57.307Z,3.50
2023-01-20T23:21:24.485Z,3.50
2023-01-20T23:23:54.470Z,3.40
2023-01-20T23:26:25.784Z,3.40
2023-01-20T23:28:53.913Z,3.40
2023-01-20T23:31:23.016Z,3.40
2023-01-20T23:33:50.466Z,3.40
2023-01-20T23:36:21.536Z,3.40
2023-01-20T23:38:48.288Z,3.30
2023-01-20T23:41:15.842Z,3.30
2023-01-20T23:43:43.151Z,3.30
2023-01-20T23:46:10.937Z,3.30
2023-01-20T23:48:39.180Z,3.30
2023-01-20T23:51:06.860Z,3.30
2023-01-20T23:53:40.349Z,3.30
2023-01-20T23:56:15.847Z,3.30
2023-01-20T23:58:42.859Z,3.30
